createdAt,value
2018-06-11T00:01:43.262Z,90.58
2018-06-11T00:04:12.013Z,89.87
2018-06-11T00:06:40.725Z,89.26
2018-06-11T00:09:09.629Z,90.70
2018-06-11T00:11:38.358Z,91.30
2018-06-11T00:14:07.111Z,91.35
2018-06-11T00:16:35.853Z,90.73
2018-06-11T00:19:04.542Z,93.57
2018-06-11T00:21:33.250Z,93.48
2018-06-11T00:24:01.994Z,93.40
2018-06-11T00:26:30.709Z,93.86
2018-06-11T00:28:59.402Z,94.66
2018-06-11T00:31:28.173Z,93.60
2018-06-11T00:33:56.881Z,93.48
2018-06-11T00:36:25.572Z,92.74
2018-06-11T00:38:54.284Z,92.86
2018-06-11T00:41:22.989Z,91.58
2018-06-11T00:43:51.683Z,91.74
2018-06-11T00:46:20.431Z,91.32
2018-06-11T00:48:49.267Z,90.73
2018-06-11T00:51:18.160Z,90.82
2018-06-11T00:53:46.902Z,90.34
2018-06-11T00:56:15.579Z,90.50
2018-06-11T00:58:44.272Z,90.75
2018-06-11T01:01:13.014Z,90.19
2018-06-11T01:03:41.744Z,91.26
2018-06-11T01:06:10.454Z,91.33
2018-06-11T01:08:39.169Z,91.25
2018-06-11T01:11:07.854Z,91.89
2018-06-11T01:13:36.551Z,92.98
2018-06-11T01:16:05.306Z,92.80
2018-06-11T01:18:34.010Z,93.73
2018-06-11T01:21:02.703Z,93.79
2018-06-11T01:23:31.471Z,92.53
2018-06-11T01:26:00.187Z,92.32
2018-06-11T01:28:28.919Z,92.26
2018-06-11T01:30:57.781Z,93.15
2018-06-11T01:33:26.483Z,93.84
2018-06-11T01:35:55.186Z,93.61
2018-06-11T01:38:23.926Z,94.21
2018-06-11T01:40:52.646Z,93.94
2018-06-11T01:43:21.356Z,95.43
2018-06-11T01:45:50.093Z,95.46
2018-06-11T01:48:18.860Z,96.35
2018-06-11T01:50:47.638Z,96.12
2018-06-11T01:53:16.372Z,96.85
2018-06-11T01:55:45.068Z,96.74
2018-06-11T01:58:13.759Z,96.69
2018-06-11T02:00:42.555Z,95.84
2018-06-11T02:03:11.456Z,95.01
2018-06-11T02:05:40.251Z,95.18
2018-06-11T02:08:08.977Z,94.44
2018-06-11T02:10:37.676Z,95.57
2018-06-11T02:13:06.599Z,96.16
2018-06-11T02:15:35.329Z,96.01
2018-06-11T02:18:04.086Z,96.48
2018-06-11T02:20:32.830Z,96.58
2018-06-11T02:23:01.570Z,96.60
2018-06-11T02:25:30.273Z,96.49
2018-06-11T02:27:59.106Z,96.22
2018-06-11T02:30:27.844Z,95.08
2018-06-11T02:32:56.554Z,96.20
2018-06-11T02:35:25.269Z,96.98
2018-06-11T02:37:53.994Z,96.86
2018-06-11T02:40:22.699Z,96.13
2018-06-11T02:42:51.395Z,95.11
2018-06-11T02:45:20.150Z,96.43
2018-06-11T02:47:48.853Z,94.95
2018-06-11T02:50:17.565Z,95.92
2018-06-11T02:52:46.343Z,95.70
2018-06-11T02:55:15.040Z,95.20
2018-06-11T02:57:43.730Z,94.59
2018-06-11T03:00:12.483Z,94.70
2018-06-11T03:02:41.357Z,94.89
2018-06-11T03:05:10.058Z,95.22
2018-06-11T03:07:39.001Z,94.35
2018-06-11T03:10:07.833Z,94.52
2018-06-11T03:12:36.545Z,94.49
2018-06-11T03:15:05.266Z,93.55
2018-06-11T03:17:33.949Z,92.93
2018-06-11T03:20:02.635Z,92.20
2018-06-11T03:22:31.379Z,91.11
2018-06-11T03:25:00.177Z,91.05
2018-06-11T03:27:28.872Z,90.00
2018-06-11T03:29:57.597Z,89.86
2018-06-11T03:32:26.282Z,88.81
2018-06-11T03:34:54.984Z,83.76
2018-06-11T03:37:23.743Z,76.66
2018-06-11T03:39:52.440Z,72.93
2018-06-11T03:42:21.166Z,69.02
2018-06-11T03:44:49.910Z,67.40
2018-06-11T03:47:18.626Z,66.46
2018-06-11T03:49:47.456Z,63.98
2018-06-11T03:52:16.273Z,63.76
2018-06-11T03:54:44.980Z,60.81
2018-06-11T03:57:13.675Z,59.26
2018-06-11T03:59:42.497Z,56.46
2018-06-11T04:02:11.562Z,54.85
2018-06-11T04:04:40.297Z,51.32
2018-06-11T04:07:09.052Z,48.88
2018-06-11T04:09:37.753Z,47.41
2018-06-11T04:12:06.452Z,44.28
2018-06-11T04:14:35.265Z,43.86
2018-06-11T04:17:04.275Z,42.61
2018-06-11T04:19:33.000Z,42.58
2018-06-11T04:22:01.738Z,42.97
2018-06-11T04:24:30.489Z,40.63
2018-06-11T04:26:59.218Z,40.39
2018-06-11T04:29:27.956Z,39.27
2018-06-11T04:31:56.657Z,38.67
2018-06-11T04:34:25.382Z,38.44
2018-06-11T04:36:54.258Z,36.04
2018-06-11T04:39:22.979Z,37.08
2018-06-11T04:41:51.670Z,35.47
2018-06-11T04:44:20.473Z,35.16
2018-06-11T04:46:49.195Z,35.84
2018-06-11T04:49:17.913Z,37.06
2018-06-11T04:51:46.715Z,37.50
2018-06-11T04:54:15.576Z,35.79
2018-06-11T04:56:44.322Z,34.14
2018-06-11T04:59:13.292Z,33.77
2018-06-11T05:01:42.044Z,34.38
2018-06-11T05:04:10.787Z,34.61
2018-06-11T05:06:39.546Z,34.11
2018-06-11T05:09:08.311Z,33.79
2018-06-11T05:11:37.008Z,35.38
2018-06-11T05:14:05.730Z,35.68
2018-06-11T05:16:34.421Z,33.06
2018-06-11T05:19:03.121Z,31.58
2018-06-11T05:21:31.882Z,31.85
2018-06-11T05:24:00.603Z,31.12
2018-06-11T05:26:29.317Z,31.56
2018-06-11T05:28:58.057Z,30.73
2018-06-11T05:31:26.802Z,30.57
2018-06-11T05:33:55.529Z,31.05
2018-06-11T05:36:24.285Z,30.36
2018-06-11T05:38:52.986Z,28.96
2018-06-11T05:41:21.703Z,28.55
2018-06-11T05:43:50.445Z,28.86
2018-06-11T05:46:19.162Z,27.50
2018-06-11T05:48:48.010Z,27.30
2018-06-11T05:51:16.867Z,28.58
2018-06-11T05:53:45.609Z,28.98
2018-06-11T05:56:14.295Z,30.79
2018-06-11T05:58:43.017Z,30.44
2018-06-11T06:01:11.809Z,29.87
2018-06-11T06:03:40.559Z,28.30
2018-06-11T06:06:09.311Z,30.22
2018-06-11T06:08:38.075Z,30.72
2018-06-11T06:11:06.766Z,28.72
2018-06-11T06:13:35.532Z,26.64
2018-06-11T06:16:04.272Z,26.74
2018-06-11T06:18:32.981Z,25.80
2018-06-11T06:21:01.714Z,25.28
2018-06-11T06:23:30.417Z,24.73
2018-06-11T06:25:59.126Z,24.81
2018-06-11T06:28:27.869Z,24.58
2018-06-11T06:30:56.578Z,24.52
2018-06-11T06:33:25.277Z,24.12
2018-06-11T06:35:54.026Z,23.94
2018-06-11T06:38:22.721Z,24.64
2018-06-11T06:40:51.627Z,26.66
2018-06-11T06:43:20.387Z,27.30
2018-06-11T06:45:49.091Z,27.14
2018-06-11T06:48:17.794Z,26.15
2018-06-11T06:50:46.554Z,26.63
2018-06-11T06:53:15.269Z,25.75
2018-06-11T06:55:43.970Z,25.75
2018-06-11T06:58:12.690Z,25.63
2018-06-11T07:00:41.418Z,25.95
2018-06-11T07:03:10.159Z,25.67
2018-06-11T07:05:38.907Z,26.86
2018-06-11T07:08:07.655Z,28.20
2018-06-11T07:10:36.368Z,26.98
2018-06-11T07:13:05.113Z,26.27
2018-06-11T07:15:33.843Z,25.83
2018-06-11T07:18:02.579Z,26.32
2018-06-11T07:20:31.355Z,27.17
2018-06-11T07:23:00.086Z,24.97
2018-06-11T07:25:28.795Z,24.16
2018-06-11T07:27:57.547Z,24.52
2018-06-11T07:30:26.276Z,24.76
2018-06-11T07:32:55.014Z,25.28
2018-06-11T07:35:23.762Z,25.47
2018-06-11T07:37:52.538Z,26.14
2018-06-11T07:40:21.267Z,25.68
2018-06-11T07:42:50.016Z,27.32
2018-06-11T07:45:18.731Z,24.84
2018-06-11T07:47:47.437Z,26.73
2018-06-11T07:50:17.141Z,27.94
2018-06-11T07:52:45.849Z,26.85
2018-06-11T07:55:14.553Z,26.72
2018-06-11T07:57:43.279Z,26.58
2018-06-11T08:00:11.979Z,28.67
2018-06-11T08:02:40.669Z,29.35
2018-06-11T08:05:09.396Z,27.86
2018-06-11T08:07:38.216Z,26.03
2018-06-11T08:10:06.916Z,27.95
2018-06-11T08:12:35.699Z,30.38
2018-06-11T08:15:04.408Z,31.61
2018-06-11T08:17:33.090Z,33.01
2018-06-11T08:20:01.818Z,32.92
2018-06-11T08:22:30.529Z,30.08
2018-06-11T08:24:59.330Z,29.06
2018-06-11T08:27:28.113Z,27.57
2018-06-11T08:29:56.805Z,26.25
2018-06-11T08:32:25.882Z,26.10
2018-06-11T08:34:54.653Z,22.88
2018-06-11T08:37:23.379Z,23.03
2018-06-11T08:39:52.295Z,22.79
2018-06-11T08:42:21.043Z,22.72
2018-06-11T08:44:49.760Z,23.91
2018-06-11T08:47:18.444Z,26.81
2018-06-11T08:49:47.184Z,27.14
2018-06-11T08:52:16.795Z,26.55
2018-06-11T08:54:45.511Z,25.34
2018-06-11T08:57:14.289Z,25.25
2018-06-11T08:59:43.036Z,26.55
2018-06-11T09:02:11.759Z,26.81
2018-06-11T09:04:40.491Z,26.72
2018-06-11T09:07:09.225Z,27.38
2018-06-11T09:09:37.917Z,26.20
2018-06-11T09:12:06.628Z,24.62
2018-06-11T09:14:35.326Z,24.66
2018-06-11T09:17:04.033Z,25.38
2018-06-11T09:19:32.749Z,28.36
2018-06-11T09:22:01.434Z,26.49
2018-06-11T09:24:30.134Z,26.90
2018-06-11T09:26:58.930Z,24.32
2018-06-11T09:29:27.667Z,24.26
2018-06-11T09:31:56.373Z,23.50
2018-06-11T09:34:25.098Z,22.59
2018-06-11T09:36:53.790Z,22.60
2018-06-11T09:39:22.497Z,23.14
2018-06-11T09:41:51.221Z,25.41
2018-06-11T09:44:19.913Z,25.14
2018-06-11T09:46:48.610Z,25.24
2018-06-11T09:49:17.401Z,24.63
2018-06-11T09:51:46.061Z,24.98
2018-06-11T09:54:14.761Z,24.59
2018-06-11T09:56:43.488Z,24.10
2018-06-11T09:59:12.202Z,25.22
2018-06-11T10:01:40.995Z,22.75
2018-06-11T10:04:09.747Z,23.20
2018-06-11T10:06:38.457Z,23.35
2018-06-11T10:09:08.834Z,24.30
2018-06-11T10:11:37.583Z,24.80
2018-06-11T10:14:06.573Z,25.90
2018-06-11T10:16:35.288Z,23.85
2018-06-11T10:19:04.119Z,26.34
2018-06-11T10:21:32.915Z,25.11
2018-06-11T10:24:01.679Z,23.59
2018-06-11T10:26:30.410Z,22.27
2018-06-11T10:28:59.214Z,22.17
2018-06-11T10:31:28.049Z,22.77
2018-06-11T10:33:56.790Z,24.46
2018-06-11T10:36:25.497Z,27.30
2018-06-11T10:38:54.207Z,29.75
2018-06-11T10:41:22.950Z,29.36
2018-06-11T10:43:51.653Z,27.48
2018-06-11T10:46:20.361Z,24.93
2018-06-11T10:48:49.102Z,23.80
2018-06-11T10:51:17.813Z,24.84
2018-06-11T10:53:46.508Z,24.24
2018-06-11T10:56:15.245Z,22.15
2018-06-11T10:58:43.945Z,22.12
2018-06-11T11:01:12.652Z,22.98
2018-06-11T11:03:41.390Z,22.20
2018-06-11T11:06:10.078Z,21.96
2018-06-11T11:08:38.765Z,24.96
2018-06-11T11:11:07.569Z,26.03
2018-06-11T11:13:36.301Z,24.48
2018-06-11T11:16:04.989Z,25.46
2018-06-11T11:18:33.758Z,25.76
2018-06-11T11:21:02.484Z,26.15
2018-06-11T11:23:31.181Z,25.32
2018-06-11T11:25:59.926Z,25.70
2018-06-11T11:28:28.713Z,24.92
2018-06-11T11:30:57.413Z,24.52
2018-06-11T11:33:26.167Z,22.50
2018-06-11T11:35:55.055Z,23.27
2018-06-11T11:38:23.763Z,21.74
2018-06-11T11:40:52.511Z,22.37
2018-06-11T11:43:21.222Z,22.00
2018-06-11T11:45:49.933Z,22.23
2018-06-11T11:48:18.675Z,22.93
2018-06-11T11:50:47.362Z,23.54
2018-06-11T11:53:16.080Z,24.43
2018-06-11T11:55:44.831Z,23.28
2018-06-11T11:58:13.559Z,22.86
2018-06-11T12:00:42.277Z,23.56
2018-06-11T12:03:11.015Z,21.72
2018-06-11T12:05:39.738Z,20.57
2018-06-11T12:08:08.451Z,21.04
2018-06-11T12:10:37.197Z,22.32
2018-06-11T12:13:05.923Z,23.00
2018-06-11T12:15:34.670Z,23.18
2018-06-11T12:18:03.423Z,21.88
2018-06-11T12:20:32.121Z,21.30
2018-06-11T12:23:00.821Z,20.16
2018-06-11T12:25:29.542Z,20.97
2018-06-11T12:27:58.350Z,20.47
2018-06-11T12:30:27.030Z,22.99
2018-06-11T12:32:55.758Z,23.64
2018-06-11T12:35:24.445Z,26.07
2018-06-11T12:37:53.138Z,25.16
2018-06-11T12:40:21.971Z,25.72
2018-06-11T12:42:50.665Z,26.95
2018-06-11T12:45:19.367Z,28.44
2018-06-11T12:47:48.094Z,29.13
2018-06-11T12:50:16.813Z,29.15
2018-06-11T12:52:45.535Z,28.90
2018-06-11T12:55:14.292Z,27.44
2018-06-11T12:57:42.990Z,32.10
2018-06-11T13:00:11.742Z,28.82
2018-06-11T13:02:40.566Z,29.74
2018-06-11T13:05:09.267Z,30.73
2018-06-11T13:07:37.982Z,29.18
2018-06-11T13:10:06.726Z,30.24
2018-06-11T13:12:35.452Z,30.08
2018-06-11T13:15:04.180Z,31.43
2018-06-11T13:17:32.918Z,31.25
2018-06-11T13:20:01.643Z,30.41
2018-06-11T13:22:30.478Z,29.58
2018-06-11T13:24:59.216Z,31.38
2018-06-11T13:27:27.931Z,30.91
2018-06-11T13:29:56.657Z,30.07
2018-06-11T13:32:25.399Z,30.25
2018-06-11T13:34:54.193Z,30.26
2018-06-11T13:37:22.893Z,29.53
2018-06-11T13:39:51.629Z,29.55
2018-06-11T13:42:20.338Z,29.81
2018-06-11T13:44:49.042Z,28.91
2018-06-11T13:47:17.786Z,28.33
2018-06-11T13:49:46.500Z,28.61
2018-06-11T13:52:15.236Z,28.99
2018-06-11T13:54:43.989Z,29.15
2018-06-11T13:57:12.714Z,29.93
2018-06-11T13:59:41.397Z,29.51
2018-06-11T14:02:10.143Z,29.64
2018-06-11T14:04:38.849Z,29.63
2018-06-11T14:07:07.560Z,29.96
2018-06-11T14:09:36.303Z,29.29
2018-06-11T14:12:05.164Z,29.00
2018-06-11T14:14:33.877Z,28.98
2018-06-11T14:17:02.684Z,30.21
2018-06-11T14:19:31.386Z,28.97
2018-06-11T14:22:00.249Z,29.08
2018-06-11T14:24:29.006Z,29.83
2018-06-11T14:26:57.738Z,29.79
2018-06-11T14:29:26.460Z,29.09
2018-06-11T14:31:55.211Z,29.94
2018-06-11T14:34:23.925Z,29.52
2018-06-11T14:36:52.643Z,28.68
2018-06-11T14:39:21.405Z,30.37
2018-06-11T14:41:50.102Z,28.87
2018-06-11T14:44:18.837Z,28.91
2018-06-11T14:46:47.621Z,29.37
2018-06-11T14:49:16.310Z,29.31
2018-06-11T14:51:45.049Z,29.42
2018-06-11T14:54:13.790Z,29.25
2018-06-11T14:56:42.524Z,28.95
2018-06-11T14:59:11.391Z,29.66
2018-06-11T15:01:40.119Z,30.18
2018-06-11T15:04:08.852Z,30.00
2018-06-11T15:06:37.552Z,28.00
2018-06-11T15:09:07.856Z,27.64
2018-06-11T15:11:36.576Z,30.06
2018-06-11T15:14:05.576Z,30.38
2018-06-11T15:16:34.395Z,30.25
2018-06-11T15:19:03.143Z,30.00
2018-06-11T15:21:31.847Z,29.38
2018-06-11T15:24:00.577Z,29.13
2018-06-11T15:26:29.274Z,28.88
2018-06-11T15:28:57.982Z,29.13
2018-06-11T15:31:26.726Z,29.45
2018-06-11T15:33:55.537Z,30.29
2018-06-11T15:36:24.252Z,29.55
2018-06-11T15:38:53.056Z,28.65
2018-06-11T15:41:26.861Z,29.66
2018-06-11T15:43:55.972Z,32.74
2018-06-11T15:46:24.691Z,30.80
2018-06-11T15:48:53.418Z,30.39
2018-06-11T15:51:22.173Z,30.35
2018-06-11T15:53:51.079Z,30.73
2018-06-11T15:56:19.839Z,30.85
2018-06-11T15:58:49.001Z,31.88
2018-06-11T16:01:17.935Z,30.45
2018-06-11T16:03:46.935Z,31.64
2018-06-11T16:06:15.809Z,31.89
2018-06-11T16:08:44.538Z,32.83
2018-06-11T16:11:13.817Z,33.81
2018-06-11T16:13:42.575Z,34.20
2018-06-11T16:16:11.302Z,33.50
2018-06-11T16:18:40.032Z,33.79
2018-06-11T16:21:08.819Z,33.85
2018-06-11T16:23:37.745Z,34.58
2018-06-11T16:26:06.909Z,35.83
2018-06-11T16:28:35.714Z,35.37
2018-06-11T16:31:04.495Z,35.22
2018-06-11T16:33:33.227Z,35.74
2018-06-11T16:36:01.994Z,36.16
2018-06-11T16:38:30.861Z,36.29
2018-06-11T16:40:59.575Z,35.29
2018-06-11T16:43:28.529Z,35.96
2018-06-11T16:45:57.321Z,36.30
2018-06-11T16:48:26.066Z,37.19
2018-06-11T16:50:55.286Z,41.91
2018-06-11T16:53:24.129Z,41.99
2018-06-11T16:55:52.892Z,42.44
2018-06-11T16:58:21.650Z,45.57
2018-06-11T17:00:50.402Z,46.87
2018-06-11T17:03:19.142Z,47.32
2018-06-11T17:05:47.925Z,48.54
2018-06-11T17:08:16.755Z,50.83
2018-06-11T17:10:45.584Z,49.47
2018-06-11T17:13:14.315Z,50.08
2018-06-11T17:15:43.063Z,52.52
2018-06-11T17:18:11.778Z,54.79
2018-06-11T17:20:40.693Z,53.35
2018-06-11T17:23:09.434Z,55.97
2018-06-11T17:25:38.353Z,54.39
2018-06-11T17:28:07.267Z,53.99
2018-06-11T17:30:36.046Z,54.16
2018-06-11T17:33:04.908Z,56.95
2018-06-11T17:35:33.647Z,57.71
2018-06-11T17:38:02.366Z,57.31
2018-06-11T17:40:31.051Z,60.33
2018-06-11T17:42:59.795Z,60.41
2018-06-11T17:45:28.528Z,58.98
2018-06-11T17:47:57.433Z,64.36
2018-06-11T17:50:26.204Z,64.63
2018-06-11T17:52:54.942Z,63.74
2018-06-11T17:55:23.663Z,64.07
2018-06-11T17:57:52.414Z,60.54
2018-06-11T18:00:21.173Z,63.81
2018-06-11T18:02:49.891Z,65.12
2018-06-11T18:05:18.626Z,67.11
2018-06-11T18:07:47.386Z,65.14
2018-06-11T18:10:16.111Z,64.97
2018-06-11T18:12:44.870Z,63.96
2018-06-11T18:15:13.578Z,52.96
2018-06-11T18:17:42.831Z,61.25
2018-06-11T18:20:11.650Z,54.04
2018-06-11T18:22:40.488Z,63.71
2018-06-11T18:25:09.205Z,67.33
2018-06-11T18:27:37.967Z,65.58
2018-06-11T18:30:06.674Z,65.11
2018-06-11T18:32:35.365Z,51.99
2018-06-11T18:35:04.126Z,61.26
2018-06-11T18:37:32.845Z,55.27
2018-06-11T18:40:01.722Z,55.38
2018-06-11T18:42:30.515Z,57.86
2018-06-11T18:44:59.261Z,63.92
2018-06-11T18:47:27.979Z,59.49
2018-06-11T18:49:56.726Z,62.46
2018-06-11T18:52:25.459Z,56.41
2018-06-11T18:54:54.161Z,52.11
2018-06-11T18:57:22.893Z,50.39
2018-06-11T18:59:51.602Z,46.72
2018-06-11T19:02:20.478Z,57.75
2018-06-11T19:04:49.241Z,53.22
2018-06-11T19:07:17.962Z,54.51
2018-06-11T19:09:46.699Z,45.71
2018-06-11T19:12:15.464Z,47.00
2018-06-11T19:14:44.153Z,48.87
2018-06-11T19:17:12.862Z,48.20
2018-06-11T19:19:41.622Z,53.69
2018-06-11T19:22:10.390Z,52.29
2018-06-11T19:24:39.085Z,53.27
2018-06-11T19:27:07.851Z,51.33
2018-06-11T19:29:36.636Z,55.02
2018-06-11T19:32:05.357Z,49.29
2018-06-11T19:34:34.153Z,48.72
2018-06-11T19:37:02.900Z,49.18
2018-06-11T19:39:31.641Z,52.23
2018-06-11T19:42:00.393Z,47.50
2018-06-11T19:44:29.093Z,51.81
2018-06-11T19:46:57.841Z,49.20
2018-06-11T19:49:26.573Z,60.28
2018-06-11T19:51:55.298Z,60.38
2018-06-11T19:54:24.180Z,60.85
2018-06-11T19:56:52.987Z,58.60
2018-06-11T19:59:21.728Z,58.26
2018-06-11T20:01:50.475Z,58.44
2018-06-11T20:04:19.190Z,54.53
2018-06-11T20:06:47.889Z,53.24
2018-06-11T20:09:16.606Z,55.75
2018-06-11T20:11:45.325Z,60.25
2018-06-11T20:14:14.027Z,55.11
2018-06-11T20:16:42.756Z,55.00
2018-06-11T20:19:11.529Z,52.26
2018-06-11T20:21:40.289Z,50.59
2018-06-11T20:24:08.989Z,60.19
2018-06-11T20:26:37.781Z,60.00
2018-06-11T20:29:06.481Z,62.39
2018-06-11T20:31:35.181Z,65.83
2018-06-11T20:34:04.038Z,60.77
2018-06-11T20:36:32.876Z,59.51
2018-06-11T20:39:01.580Z,59.25
2018-06-11T20:41:30.437Z,65.20
2018-06-11T20:43:59.147Z,66.34
2018-06-11T20:46:27.853Z,66.02
2018-06-11T20:48:56.608Z,62.02
2018-06-11T20:51:25.339Z,68.63
2018-06-11T20:53:54.166Z,69.98
2018-06-11T20:56:22.947Z,65.54
2018-06-11T20:58:51.704Z,71.22
2018-06-11T21:01:20.566Z,66.27
2018-06-11T21:03:49.320Z,70.14
2018-06-11T21:06:18.059Z,71.40
2018-06-11T21:08:46.789Z,71.33
2018-06-11T21:11:15.530Z,67.44
2018-06-11T21:13:44.360Z,60.01
2018-06-11T21:16:13.120Z,59.99
2018-06-11T21:18:41.900Z,55.74
2018-06-11T21:21:10.746Z,56.67
2018-06-11T21:23:39.708Z,53.07
2018-06-11T21:26:08.495Z,64.33
2018-06-11T21:28:37.254Z,53.67
2018-06-11T21:31:05.990Z,56.67
2018-06-11T21:33:34.746Z,60.71
2018-06-11T21:36:03.498Z,62.05
2018-06-11T21:38:32.218Z,63.03
2018-06-11T21:41:00.965Z,61.51
2018-06-11T21:43:29.676Z,60.57
2018-06-11T21:45:58.373Z,61.78
2018-06-11T21:48:27.118Z,60.00
2018-06-11T21:50:55.818Z,63.32
2018-06-11T21:53:24.531Z,63.19
2018-06-11T21:55:53.294Z,63.06
2018-06-11T21:58:22.022Z,63.77
2018-06-11T22:00:50.750Z,63.99
2018-06-11T22:03:19.542Z,64.36
2018-06-11T22:05:48.249Z,60.94
2018-06-11T22:08:16.952Z,66.75
2018-06-11T22:10:45.869Z,65.32
2018-06-11T22:13:14.591Z,65.34
2018-06-11T22:15:43.344Z,66.19
2018-06-11T22:18:12.121Z,67.17
2018-06-11T22:20:41.056Z,65.70
2018-06-11T22:23:10.048Z,67.17
2018-06-11T22:25:38.885Z,67.00
2018-06-11T22:28:07.589Z,66.38
2018-06-11T22:30:36.316Z,66.04
2018-06-11T22:33:05.055Z,65.32
2018-06-11T22:35:33.765Z,66.76
2018-06-11T22:38:02.573Z,66.04
2018-06-11T22:40:31.308Z,64.50
2018-06-11T22:43:00.036Z,67.99
2018-06-11T22:45:28.742Z,69.91
2018-06-11T22:47:57.489Z,70.54
2018-06-11T22:50:26.181Z,68.74
2018-06-11T22:52:54.873Z,66.84
2018-06-11T22:55:23.601Z,66.73
2018-06-11T22:57:52.305Z,67.72
2018-06-11T23:00:25.001Z,67.93
2018-06-11T23:02:53.702Z,68.68
2018-06-11T23:05:22.410Z,67.42
2018-06-11T23:07:51.161Z,67.28
2018-06-11T23:10:19.877Z,67.91
2018-06-11T23:12:48.680Z,67.85
2018-06-11T23:15:17.492Z,68.29
2018-06-11T23:17:46.247Z,67.63
2018-06-11T23:20:15.178Z,70.29
2018-06-11T23:22:43.950Z,70.77
2018-06-11T23:25:12.662Z,72.37
2018-06-11T23:27:41.368Z,68.95
2018-06-11T23:30:10.110Z,68.61
2018-06-11T23:32:38.941Z,67.55
2018-06-11T23:35:07.656Z,59.40
2018-06-11T23:37:36.390Z,66.38
2018-06-11T23:40:05.113Z,69.00
2018-06-11T23:42:33.822Z,68.33
2018-06-11T23:45:02.550Z,70.94
2018-06-11T23:47:31.257Z,69.75
2018-06-11T23:49:59.955Z,68.24
2018-06-11T23:52:28.673Z,71.62
2018-06-11T23:54:57.377Z,72.68
2018-06-11T23:57:26.091Z,72.22
2018-06-11T23:59:54.834Z,71.05
